WXM80 ListenWXM80 Stop

You find our weather info also at:

UK Metoffice

WeatherCloud

Weather Underground

Northeastern Weather Network

AWEKAS

Citizen Weather Observer Program (CWOP)

HAMweather, WeatherForYou, PWS Weather


Weather Underground History page Text

Daily Summary for March 5, 2017 Units:  English    Metric   Both
« Previous Day
Next Day »
Daily Weekly Monthly Yearly Custom
  High: Low: Average:
Temperature: TemperatureF °F 15.2 °F 25.2 °F
Dew Point: DewpointF °F -2.3 °F 2.1 °F
Humidity: Humidity % 24 % 37 %
Wind Speed: WindSpeedMPH mph 0.2 mph 6 mph
Wind Gust: WindSpeedGustMPH mph - -
Wind:- - WSW
Pressure: PressureIn in 30.47 in -
Precipitation: 0.00 in    
Historical Graphs
 
 
Tabular Data for March 5, 2017
Time Temperature Dew Point Pressure Wind Wind Speed Wind Gust Humidity Rainfall Rate (Hourly)
TemperatureF °F DewpointF °F PressureIn in Calm     Humidity % HourlyPrecipIn in
00:02 18.1 °F 0.3 °F 30.56 in NNW 6.4 mph 16.1 mph 45 % 0.00 in
00:07 18.0 °F -0.3 °F 30.56 in North 6.3 mph 18.4 mph 44 % 0.00 in
00:12 17.9 °F 0.1 °F 30.56 in NNW 9.4 mph 17.3 mph 45 % 0.00 in
00:17 17.8 °F 0.0 °F 30.56 in NW 7.4 mph 11.5 mph 45 % 0.00 in
00:18 17.9 °F 0.6 °F 30.56 in NW 7.5 mph 11.5 mph 46 % 0.00 in
00:23 17.9 °F 0.6 °F 30.56 in NW 10.9 mph 19.0 mph 46 % 0.00 in
00:28 17.8 °F -0.5 °F 30.55 in NW 9.9 mph 23.0 mph 44 % 0.00 in
00:33 17.7 °F -0.1 °F 30.55 in NNW 9.0 mph 16.0 mph 45 % 0.00 in
00:38 17.7 °F -0.1 °F 30.56 in North 10.0 mph 18.0 mph 45 % 0.00 in
00:43 17.7 °F 1.3 °F 30.56 in NNW 7.0 mph 14.0 mph 48 % 0.00 in
00:48 17.6 °F 0.3 °F 30.56 in NNW 9.0 mph 18.0 mph 46 % 0.00 in
00:53 17.5 °F 0.2 °F 30.57 in NNW 7.0 mph 14.0 mph 46 % 0.00 in
00:58 17.4 °F -0.4 °F 30.57 in NNW 6.8 mph 13.8 mph 45 % 0.00 in
01:03 17.3 °F 0.0 °F 30.56 in NNW 8.3 mph 12.7 mph 46 % 0.00 in
01:08 17.3 °F 0.0 °F 30.56 in North 7.0 mph 11.5 mph 46 % 0.00 in
01:13 17.3 °F 0.5 °F 30.57 in WNW 5.6 mph 11.5 mph 47 % 0.00 in
01:18 17.2 °F 0.8 °F 30.57 in NNE 7.0 mph 14.0 mph 48 % 0.00 in
01:23 17.1 °F -0.6 °F 30.56 in NNW 6.7 mph 16.1 mph 45 % 0.00 in
01:28 17.0 °F -1.2 °F 30.57 in NW 8.9 mph 18.4 mph 44 % 0.00 in
01:33 17.0 °F -0.7 °F 30.57 in NNW 7.3 mph 14.0 mph 45 % 0.00 in
01:39 16.9 °F 0.1 °F 30.57 in NNW 9.5 mph 19.6 mph 47 % 0.00 in
01:44 16.9 °F -1.3 °F 30.57 in West 6.6 mph 11.5 mph 44 % 0.00 in
01:49 16.8 °F -0.9 °F 30.57 in NW 6.5 mph 11.5 mph 45 % 0.00 in
01:54 16.8 °F -0.9 °F 30.57 in NNW 8.3 mph 13.0 mph 45 % 0.00 in
01:59 16.8 °F -1.4 °F 30.56 in North 3.6 mph 11.5 mph 44 % 0.00 in
02:04 16.7 °F -0.5 °F 30.57 in NNW 4.6 mph 8.1 mph 46 % 0.00 in
02:09 16.7 °F -1.0 °F 30.56 in NNW 8.5 mph 13.8 mph 45 % 0.00 in
02:14 16.6 °F -1.1 °F 30.55 in WNW 7.3 mph 16.1 mph 45 % 0.00 in
02:19 16.6 °F -0.6 °F 30.55 in NNW 6.4 mph 11.5 mph 46 % 0.00 in
02:24 16.6 °F -0.6 °F 30.56 in NW 7.9 mph 12.7 mph 46 % 0.00 in
02:29 16.5 °F 0.2 °F 30.56 in NNE 4.9 mph 8.1 mph 48 % 0.00 in
02:34 16.5 °F -0.3 °F 30.56 in NNW 5.1 mph 10.4 mph 47 % 0.00 in
02:39 16.4 °F 0.1 °F 30.56 in NW 9.3 mph 16.1 mph 48 % 0.00 in
02:44 16.4 °F 0.1 °F 30.56 in WNW 5.6 mph 8.1 mph 48 % 0.00 in
02:49 16.4 °F -0.3 °F 30.56 in NW 5.3 mph 12.7 mph 47 % 0.00 in
02:55 16.4 °F -0.3 °F 30.56 in NNW 9.0 mph 12.7 mph 47 % 0.00 in
03:00 16.3 °F -0.9 °F 30.57 in NW 5.5 mph 8.1 mph 46 % 0.00 in
03:05 16.2 °F -1.0 °F 30.57 in NW 7.1 mph 13.0 mph 46 % 0.00 in
03:10 16.2 °F -0.5 °F 30.57 in NW 3.2 mph 7.0 mph 47 % 0.00 in
03:15 16.1 °F -0.2 °F 30.57 in North 3.8 mph 6.9 mph 48 % 0.00 in
03:20 16.1 °F -1.1 °F 30.57 in North 6.3 mph 13.8 mph 46 % 0.00 in
03:25 16.0 °F -1.2 °F 30.56 in NW 5.9 mph 13.0 mph 46 % 0.00 in
03:30 16.0 °F -0.7 °F 30.57 in NNW 4.3 mph 9.2 mph 47 % 0.00 in
03:35 16.0 °F -1.2 °F 30.57 in NNW 5.2 mph 10.4 mph 46 % 0.00 in
03:40 16.0 °F -0.7 °F 30.57 in NW 5.1 mph 11.5 mph 47 % 0.00 in
03:45 15.9 °F -1.3 °F 30.57 in NNW 6.5 mph 15.0 mph 46 % 0.00 in
03:50 15.9 °F -1.7 °F 30.57 in NW 5.1 mph 10.4 mph 45 % 0.00 in
03:55 15.8 °F -1.4 °F 30.57 in West 8.3 mph 16.1 mph 46 % 0.00 in
04:01 15.8 °F -2.3 °F 30.57 in WNW 7.6 mph 10.4 mph 44 % 0.00 in
04:06 15.8 °F -1.8 °F 30.57 in NW 6.3 mph 11.5 mph 45 % 0.00 in
04:11 15.7 °F -1.9 °F 30.57 in NNW 6.9 mph 12.0 mph 45 % 0.00 in
04:16 15.7 °F -1.4 °F 30.58 in NW 6.7 mph 12.7 mph 46 % 0.00 in
04:21 15.7 °F -1.4 °F 30.58 in NNW 6.7 mph 13.8 mph 46 % 0.00 in
04:26 15.7 °F -1.0 °F 30.58 in NNW 6.9 mph 10.0 mph 47 % 0.00 in
04:31 15.7 °F -1.0 °F 30.59 in NNW 4.9 mph 10.4 mph 47 % 0.00 in
04:36 15.7 °F -1.4 °F 30.58 in NNW 7.1 mph 11.5 mph 46 % 0.00 in
04:41 15.7 °F -0.1 °F 30.58 in NW 7.7 mph 15.0 mph 49 % 0.00 in
04:46 15.7 °F -1.0 °F 30.58 in NW 6.0 mph 10.4 mph 47 % 0.00 in
04:51 15.8 °F -0.9 °F 30.59 in NNW 4.1 mph 10.4 mph 47 % 0.00 in
04:56 15.8 °F -0.9 °F 30.59 in North 4.7 mph 8.1 mph 47 % 0.00 in
05:01 15.8 °F -0.9 °F 30.59 in NNW 4.5 mph 8.1 mph 47 % 0.00 in
05:06 15.7 °F -1.0 °F 30.60 in NW 5.8 mph 11.5 mph 47 % 0.00 in
05:12 15.7 °F -1.0 °F 30.59 in NW 2.5 mph 9.2 mph 47 % 0.00 in
05:17 15.5 °F -1.2 °F 30.60 in NW 5.2 mph 9.0 mph 47 % 0.00 in
05:22 15.5 °F -1.2 °F 30.60 in WNW 6.4 mph 10.0 mph 47 % 0.00 in
05:27 15.4 °F -1.7 °F 30.60 in WNW 5.4 mph 11.5 mph 46 % 0.00 in
05:32 15.4 °F -1.7 °F 30.60 in NNW 7.3 mph 9.0 mph 46 % 0.00 in
05:37 15.3 °F -1.8 °F 30.60 in NW 7.7 mph 11.5 mph 46 % 0.00 in
05:42 15.3 °F -2.3 °F 30.60 in NW 5.6 mph 12.7 mph 45 % 0.00 in
05:47 15.3 °F -2.3 °F 30.60 in NNW 7.5 mph 10.4 mph 45 % 0.00 in
05:52 15.3 °F -1.8 °F 30.60 in West 5.4 mph 11.5 mph 46 % 0.00 in
05:57 15.3 °F -2.3 °F 30.60 in North 3.5 mph 6.9 mph 45 % 0.00 in
06:02 15.3 °F -1.8 °F 30.60 in NW 5.7 mph 9.2 mph 46 % 0.00 in
06:08 15.3 °F -1.8 °F 30.60 in NNW 5.7 mph 15.0 mph 46 % 0.00 in
06:13 15.3 °F -1.8 °F 30.60 in WNW 8.6 mph 13.8 mph 46 % 0.00 in
06:18 15.3 °F -2.3 °F 30.61 in NNW 8.0 mph 8.1 mph 45 % 0.00 in
06:23 15.3 °F -0.9 °F 30.61 in NW 5.0 mph 14.0 mph 48 % 0.00 in
06:28 15.2 °F -1.9 °F 30.61 in NW 6.0 mph 12.0 mph 46 % 0.00 in
06:33 15.2 °F -1.5 °F 30.61 in NW 1.0 mph 13.0 mph 47 % 0.00 in
06:38 15.2 °F -1.5 °F 30.61 in NW 7.0 mph 12.0 mph 47 % 0.00 in
06:43 15.3 °F -0.9 °F 30.61 in NW 5.0 mph 14.0 mph 48 % 0.00 in
06:45 15.4 °F -1.7 °F 30.61 in WNW 4.4 mph 17.3 mph 46 % 0.00 in
06:50 15.5 °F -1.6 °F 30.62 in WNW 10.2 mph 17.3 mph 46 % 0.00 in
06:56 15.7 °F -1.0 °F 30.62 in NNW 4.6 mph 7.0 mph 47 % 0.00 in
07:01 15.9 °F -0.8 °F 30.62 in NW 6.5 mph 11.5 mph 47 % 0.00 in
07:06 16.1 °F -1.1 °F 30.62 in NNW 5.8 mph 11.5 mph 46 % 0.00 in
07:11 16.2 °F -1.0 °F 30.62 in NNE 6.4 mph 10.4 mph 46 % 0.00 in
07:16 16.4 °F -0.8 °F 30.62 in NW 8.5 mph 13.8 mph 46 % 0.00 in
07:21 16.6 °F -1.6 °F 30.62 in WNW 7.8 mph 10.0 mph 44 % 0.00 in
07:26 16.7 °F -1.0 °F 30.61 in NW 4.8 mph 10.4 mph 45 % 0.00 in
07:31 17.0 °F -0.3 °F 30.61 in WNW 6.3 mph 13.0 mph 46 % 0.00 in
07:36 17.1 °F -0.2 °F 30.62 in NW 4.5 mph 8.1 mph 46 % 0.00 in
07:41 17.3 °F 0.0 °F 30.61 in WNW 4.5 mph 11.5 mph 46 % 0.00 in
07:46 17.5 °F -1.2 °F 30.61 in WNW 6.4 mph 17.3 mph 43 % 0.00 in
07:51 17.7 °F -1.0 °F 30.61 in NW 4.9 mph 11.5 mph 43 % 0.00 in
07:56 18.0 °F -0.3 °F 30.61 in NW 5.0 mph 12.0 mph 44 % 0.00 in
08:01 18.2 °F -0.6 °F 30.61 in NNW 7.8 mph 13.8 mph 43 % 0.00 in
08:07 18.4 °F -0.4 °F 30.62 in NW 8.5 mph 11.5 mph 43 % 0.00 in
08:12 18.6 °F -0.2 °F 30.62 in NNW 6.1 mph 10.0 mph 43 % 0.00 in
08:17 18.9 °F 1.0 °F 30.62 in NNW 8.3 mph 13.0 mph 45 % 0.00 in
08:22 19.3 °F -0.1 °F 30.62 in West 3.8 mph 8.0 mph 42 % 0.00 in
08:27 19.6 °F 0.2 °F 30.62 in NW 7.5 mph 12.7 mph 42 % 0.00 in
08:32 19.9 °F -0.6 °F 30.62 in WSW 8.1 mph 13.8 mph 40 % 0.00 in
08:37 20.0 °F -0.5 °F 30.61 in NNW 7.7 mph 15.0 mph 40 % 0.00 in
08:42 20.0 °F -1.0 °F 30.62 in NNW 6.6 mph 15.0 mph 39 % 0.00 in
08:47 20.2 °F 0.2 °F 30.61 in NNW 8.2 mph 13.8 mph 41 % 0.00 in
08:52 20.5 °F 0.0 °F 30.62 in NNW 7.7 mph 11.5 mph 40 % 0.00 in
08:57 20.7 °F -0.4 °F 30.62 in NNW 3.9 mph 9.2 mph 39 % 0.00 in
09:02 20.7 °F -1.5 °F 30.62 in NNE 8.7 mph 15.0 mph 37 % 0.00 in
09:07 21.0 °F -0.1 °F 30.62 in NNW 4.2 mph 9.2 mph 39 % 0.00 in
09:12 21.3 °F -0.4 °F 30.62 in WNW 8.9 mph 17.3 mph 38 % 0.00 in
09:18 21.7 °F 0.0 °F 30.62 in NNW 8.9 mph 12.7 mph 38 % 0.00 in
09:23 22.1 °F 0.3 °F 30.61 in WNW 6.5 mph 12.0 mph 38 % 0.00 in
09:28 22.5 °F 0.7 °F 30.61 in NNE 6.4 mph 11.5 mph 38 % 0.00 in
09:33 23.2 °F 1.9 °F 30.61 in WNW 7.3 mph 8.0 mph 39 % 0.00 in
09:38 23.8 °F 1.3 °F 30.61 in NW 5.4 mph 6.9 mph 37 % 0.00 in
09:43 24.0 °F 0.9 °F 30.61 in NW 5.0 mph 16.0 mph 36 % 0.00 in
09:48 24.1 °F 0.3 °F 30.61 in NW 6.0 mph 14.0 mph 35 % 0.00 in
09:53 24.3 °F 0.5 °F 30.61 in NW 8.0 mph 15.0 mph 35 % 0.00 in
09:58 24.5 °F 0.7 °F 30.60 in NW 5.7 mph 12.7 mph 35 % 0.00 in
10:03 24.8 °F 1.6 °F 30.60 in NW 4.5 mph 8.1 mph 36 % 0.00 in
10:08 25.1 °F 0.6 °F 30.60 in NW 5.5 mph 9.2 mph 34 % 0.00 in
10:13 25.3 °F 0.2 °F 30.59 in NNW 6.6 mph 11.5 mph 33 % 0.00 in
10:18 25.5 °F 0.3 °F 30.60 in NW 6.8 mph 12.7 mph 33 % 0.00 in
10:23 25.9 °F 1.3 °F 30.59 in NNW 6.6 mph 12.7 mph 34 % 0.00 in
10:28 26.3 °F 1.0 °F 30.59 in WNW 6.7 mph 11.5 mph 33 % 0.00 in
10:33 26.7 °F 2.0 °F 30.59 in North 6.4 mph 11.5 mph 34 % 0.00 in
10:38 27.4 °F 3.3 °F 30.59 in NNW 4.4 mph 11.5 mph 35 % 0.00 in
10:44 28.0 °F 2.6 °F 30.58 in NW 7.8 mph 16.1 mph 33 % 0.00 in
10:49 28.3 °F 1.5 °F 30.58 in NNW 6.8 mph 16.1 mph 31 % 0.00 in
10:54 28.6 °F 1.7 °F 30.58 in NNW 7.6 mph 15.0 mph 31 % 0.00 in
10:59 28.9 °F 2.7 °F 30.58 in NW 6.7 mph 12.7 mph 32 % 0.00 in
11:04 29.1 °F 2.9 °F 30.58 in NW 7.2 mph 12.7 mph 32 % 0.00 in
11:09 29.4 °F 3.8 °F 30.58 in NW 6.3 mph 13.0 mph 33 % 0.00 in
11:14 30.0 °F 3.0 °F 30.58 in NNW 6.8 mph 11.5 mph 31 % 0.00 in
11:19 30.4 °F 4.7 °F 30.57 in NNW 7.7 mph 12.0 mph 33 % 0.00 in
11:25 30.5 °F 3.4 °F 30.57 in North 7.1 mph 11.5 mph 31 % 0.00 in
11:30 30.8 °F 3.7 °F 30.57 in NNW 5.1 mph 11.5 mph 31 % 0.00 in
11:35 30.9 °F 3.0 °F 30.57 in North 8.1 mph 12.7 mph 30 % 0.00 in
11:40 31.4 °F 2.8 °F 30.57 in North 7.1 mph 12.7 mph 29 % 0.00 in
11:45 31.6 °F 2.9 °F 30.57 in NW 8.9 mph 12.7 mph 29 % 0.00 in
11:50 31.5 °F 2.8 °F 30.57 in NNW 4.9 mph 10.4 mph 29 % 0.00 in
11:55 31.6 °F 2.9 °F 30.56 in NNW 6.5 mph 11.5 mph 29 % 0.00 in
12:00 31.7 °F 2.3 °F 30.56 in NNW 6.9 mph 13.8 mph 28 % 0.00 in
12:05 32.1 °F 4.1 °F 30.56 in WNW 8.0 mph 17.3 mph 30 % 0.00 in
12:10 32.1 °F 4.1 °F 30.55 in NW 7.0 mph 10.4 mph 30 % 0.00 in
12:15 32.2 °F 2.7 °F 30.55 in NW 6.0 mph 11.5 mph 28 % 0.00 in
12:20 32.3 °F 2.0 °F 30.55 in West 7.1 mph 15.0 mph 27 % 0.00 in
12:26 32.6 °F 5.3 °F 30.54 in NW 10.6 mph 15.0 mph 31 % 0.00 in
12:31 32.8 °F 2.4 °F 30.54 in NNW 7.4 mph 15.0 mph 27 % 0.00 in
12:36 32.7 °F 3.1 °F 30.53 in NNW 7.1 mph 11.5 mph 28 % 0.00 in
12:41 32.8 °F 3.2 °F 30.53 in WNW 7.9 mph 12.7 mph 28 % 0.00 in
12:46 33.0 °F 4.1 °F 30.53 in North 7.2 mph 17.3 mph 29 % 0.00 in
12:51 33.7 °F 4.8 °F 30.52 in NW 8.6 mph 13.0 mph 29 % 0.00 in
12:56 33.7 °F 4.8 °F 30.52 in NNW 6.6 mph 11.5 mph 29 % 0.00 in
13:01 33.6 °F 4.7 °F 30.52 in NW 9.1 mph 13.8 mph 29 % 0.00 in
13:06 33.9 °F 4.2 °F 30.52 in NW 7.4 mph 13.8 mph 28 % 0.00 in
13:11 34.0 °F 3.5 °F 30.51 in NNW 4.7 mph 16.1 mph 27 % 0.00 in
13:16 34.2 °F 4.4 °F 30.51 in North 6.2 mph 12.7 mph 28 % 0.00 in
13:21 34.5 °F 4.7 °F 30.51 in NNE 6.3 mph 11.0 mph 28 % 0.00 in
13:27 34.7 °F 3.2 °F 30.51 in NNW 4.5 mph 11.5 mph 26 % 0.00 in
13:32 34.9 °F 5.0 °F 30.50 in North 6.0 mph 11.5 mph 28 % 0.00 in
13:37 35.0 °F 3.5 °F 30.50 in WNW 6.8 mph 11.5 mph 26 % 0.00 in
13:42 35.0 °F 3.5 °F 30.50 in North 7.6 mph 9.0 mph 26 % 0.00 in
13:47 35.1 °F 2.7 °F 30.50 in WNW 5.6 mph 10.0 mph 25 % 0.00 in
13:52 35.0 °F 2.7 °F 30.50 in NNW 5.5 mph 11.5 mph 25 % 0.00 in
13:57 35.0 °F 2.7 °F 30.49 in NNW 6.6 mph 11.5 mph 25 % 0.00 in
14:02 35.0 °F 3.5 °F 30.49 in NNW 6.2 mph 11.5 mph 26 % 0.00 in
14:07 35.0 °F 3.5 °F 30.49 in North 7.6 mph 11.5 mph 26 % 0.00 in
14:12 35.0 °F 4.3 °F 30.49 in NNW 4.1 mph 5.8 mph 27 % 0.00 in
14:17 35.0 °F 2.7 °F 30.49 in NNW 6.3 mph 12.0 mph 25 % 0.00 in
14:22 35.0 °F 2.7 °F 30.49 in NW 5.8 mph 10.4 mph 25 % 0.00 in
14:28 35.0 °F 2.7 °F 30.49 in North 7.5 mph 15.0 mph 25 % 0.00 in
14:33 35.0 °F 3.5 °F 30.49 in NNW 5.4 mph 17.3 mph 26 % 0.00 in
14:38 35.1 °F 3.6 °F 30.48 in NW 6.5 mph 10.4 mph 26 % 0.00 in
14:43 35.0 °F 2.7 °F 30.48 in North 5.2 mph 11.5 mph 25 % 0.00 in
14:48 34.9 °F 2.6 °F 30.48 in NW 8.7 mph 15.0 mph 25 % 0.00 in
14:53 34.6 °F 1.4 °F 30.48 in NNW 7.0 mph 12.0 mph 24 % 0.00 in
14:58 34.4 °F 2.1 °F 30.48 in NW 3.4 mph 10.4 mph 25 % 0.00 in
15:03 34.3 °F 3.7 °F 30.48 in WNW 5.2 mph 11.5 mph 27 % 0.00 in
15:08 34.2 °F 2.0 °F 30.48 in NNE 5.9 mph 11.5 mph 25 % 0.00 in
15:13 34.1 °F 3.5 °F 30.48 in North 5.9 mph 10.4 mph 27 % 0.00 in
15:18 33.9 °F 2.6 °F 30.48 in North 7.1 mph 11.5 mph 26 % 0.00 in
15:23 33.7 °F 2.4 °F 30.48 in WNW 6.8 mph 12.7 mph 26 % 0.00 in
15:28 33.6 °F 4.7 °F 30.48 in NNW 3.6 mph 6.9 mph 29 % 0.00 in
15:33 33.5 °F 3.8 °F 30.48 in NW 3.5 mph 8.1 mph 28 % 0.00 in
15:38 33.4 °F 3.7 °F 30.48 in North 6.7 mph 11.5 mph 28 % 0.00 in
15:44 33.3 °F 3.6 °F 30.48 in NNW 8.8 mph 13.8 mph 28 % 0.00 in
15:49 33.2 °F 3.6 °F 30.48 in NNE 6.5 mph 11.5 mph 28 % 0.00 in
15:54 32.9 °F 2.5 °F 30.48 in NNE 6.0 mph 9.2 mph 27 % 0.00 in
15:59 32.8 °F 3.2 °F 30.47 in NE 7.4 mph 10.0 mph 28 % 0.00 in
16:04 32.8 °F 4.7 °F 30.47 in NNE 4.7 mph 5.8 mph 30 % 0.00 in
16:09 32.8 °F 3.2 °F 30.47 in North 7.0 mph 11.5 mph 28 % 0.00 in
16:14 32.7 °F 0.7 °F 30.47 in NNE 8.7 mph 13.0 mph 25 % 0.00 in
16:19 32.7 °F 4.6 °F 30.47 in North 7.6 mph 11.5 mph 30 % 0.00 in
16:24 32.6 °F 3.8 °F 30.47 in NW 7.7 mph 15.0 mph 29 % 0.00 in
16:29 32.6 °F 3.0 °F 30.47 in NNE 5.1 mph 11.5 mph 28 % 0.00 in
16:34 32.6 °F 3.0 °F 30.47 in NNW 7.1 mph 10.4 mph 28 % 0.00 in
16:39 32.6 °F 3.0 °F 30.47 in NNW 6.8 mph 15.0 mph 28 % 0.00 in
16:44 32.5 °F 3.7 °F 30.47 in North 3.5 mph 8.1 mph 29 % 0.00 in
16:49 32.5 °F 4.4 °F 30.47 in NNW 6.0 mph 9.2 mph 30 % 0.00 in
16:54 32.4 °F 3.6 °F 30.47 in North 8.1 mph 12.0 mph 29 % 0.00 in
16:59 32.3 °F 2.0 °F 30.47 in NNW 4.1 mph 9.2 mph 27 % 0.00 in
17:05 32.2 °F 4.2 °F 30.47 in NNW 6.5 mph 9.0 mph 30 % 0.00 in
17:10 32.1 °F 3.4 °F 30.47 in NNE 5.7 mph 9.2 mph 29 % 0.00 in
17:15 32.0 °F 2.5 °F 30.47 in North 6.2 mph 10.4 mph 28 % 0.00 in
17:20 31.8 °F 3.1 °F 30.47 in NNW 4.3 mph 7.0 mph 29 % 0.00 in
17:25 31.7 °F 2.3 °F 30.47 in NNE 5.5 mph 11.5 mph 28 % 0.00 in
17:30 31.5 °F 2.8 °F 30.47 in NNE 9.3 mph 11.5 mph 29 % 0.00 in
17:35 31.4 °F 2.8 °F 30.47 in North 5.6 mph 12.7 mph 29 % 0.00 in
17:40 31.3 °F 3.4 °F 30.47 in North 6.1 mph 12.7 mph 30 % 0.00 in
17:45 31.2 °F 3.3 °F 30.47 in NNE 5.7 mph 8.0 mph 30 % 0.00 in
17:50 31.1 °F 3.2 °F 30.48 in North 6.2 mph 11.5 mph 30 % 0.00 in
17:55 31.0 °F 3.1 °F 30.48 in North 5.3 mph 12.7 mph 30 % 0.00 in
18:00 30.9 °F 2.3 °F 30.49 in NE 6.7 mph 11.5 mph 29 % 0.00 in
18:05 30.8 °F 3.0 °F 30.49 in North 4.9 mph 9.2 mph 30 % 0.00 in
18:10 30.8 °F 5.0 °F 30.49 in NNE 5.1 mph 9.2 mph 33 % 0.00 in
18:16 30.7 °F 3.6 °F 30.49 in NNW 7.5 mph 15.0 mph 31 % 0.00 in
18:21 30.7 °F 2.9 °F 30.49 in NNW 8.9 mph 15.0 mph 30 % 0.00 in
18:26 30.6 °F 3.5 °F 30.50 in NE 5.4 mph 9.0 mph 31 % 0.00 in
18:31 30.6 °F 2.8 °F 30.49 in North 4.0 mph 11.5 mph 30 % 0.00 in
18:36 30.5 °F 2.7 °F 30.50 in NW 5.7 mph 10.4 mph 30 % 0.00 in
18:41 30.4 °F 3.3 °F 30.50 in NNE 4.3 mph 11.5 mph 31 % 0.00 in
18:46 30.3 °F 3.2 °F 30.50 in NNE 6.3 mph 13.8 mph 31 % 0.00 in
18:51 30.3 °F 3.2 °F 30.50 in NNE 5.0 mph 17.3 mph 31 % 0.00 in
18:56 30.2 °F 2.4 °F 30.51 in NNE 4.7 mph 10.0 mph 30 % 0.00 in
19:01 30.2 °F 1.7 °F 30.50 in North 8.3 mph 15.0 mph 29 % 0.00 in
19:06 30.1 °F 3.1 °F 30.50 in NNE 9.0 mph 13.8 mph 31 % 0.00 in
19:11 30.1 °F 1.6 °F 30.50 in NNW 5.1 mph 8.0 mph 29 % 0.00 in
19:17 30.0 °F 3.0 °F 30.50 in North 5.6 mph 15.0 mph 31 % 0.00 in
19:22 30.0 °F 3.7 °F 30.51 in NNE 5.7 mph 9.2 mph 32 % 0.00 in
19:27 30.0 °F 3.7 °F 30.51 in NNW 7.5 mph 11.5 mph 32 % 0.00 in
19:32 29.9 °F 2.9 °F 30.51 in North 4.1 mph 11.5 mph 31 % 0.00 in
19:37 29.9 °F 2.9 °F 30.51 in North 8.0 mph 12.7 mph 31 % 0.00 in
19:42 29.8 °F 3.5 °F 30.50 in North 8.2 mph 15.0 mph 32 % 0.00 in
19:47 29.8 °F 2.8 °F 30.50 in North 8.0 mph 10.4 mph 31 % 0.00 in
19:48 29.8 °F 2.8 °F 30.50 in North 7.7 mph 11.5 mph 31 % 0.00 in
19:53 29.8 °F 3.5 °F 30.50 in NNW 10.0 mph 15.0 mph 32 % 0.00 in
19:58 29.8 °F 3.5 °F 30.50 in North 7.7 mph 11.0 mph 32 % 0.00 in
20:03 29.8 °F 4.1 °F 30.50 in NNE 8.0 mph 11.5 mph 33 % 0.00 in
20:08 29.8 °F 4.8 °F 30.50 in NNE 7.0 mph 12.0 mph 34 % 0.00 in
20:13 29.8 °F 5.4 °F 30.50 in NNE 8.0 mph 12.0 mph 35 % 0.00 in
20:18 29.7 °F 4.1 °F 30.50 in NNE 9.0 mph 13.0 mph 33 % 0.00 in
20:23 29.7 °F 5.3 °F 30.50 in NNE 5.0 mph 12.0 mph 35 % 0.00 in
20:28 29.7 °F 6.0 °F 30.50 in NNE 6.0 mph 9.0 mph 36 % 0.00 in
20:33 29.6 °F 5.3 °F 30.50 in NNE 5.0 mph 10.0 mph 35 % 0.00 in
20:38 29.5 °F 5.8 °F 30.50 in NNE 6.5 mph 11.5 mph 36 % 0.00 in
20:43 29.5 °F 6.4 °F 30.50 in NNE 7.0 mph 12.0 mph 37 % 0.00 in
20:48 29.4 °F 6.9 °F 30.50 in NNE 3.0 mph 8.0 mph 38 % 0.00 in
20:53 29.4 °F 5.7 °F 30.51 in NNE 6.0 mph 12.0 mph 36 % 0.00 in
20:58 29.3 °F 6.2 °F 30.50 in NNE 5.9 mph 10.4 mph 37 % 0.00 in
21:03 29.3 °F 6.2 °F 30.51 in NNE 4.2 mph 9.2 mph 37 % 0.00 in
21:08 29.2 °F 6.1 °F 30.51 in NNW 3.8 mph 6.9 mph 37 % 0.00 in
21:13 29.1 °F 6.0 °F 30.51 in NE 3.9 mph 5.8 mph 37 % 0.00 in
21:18 29.1 °F 7.2 °F 30.51 in NNW 4.9 mph 10.0 mph 39 % 0.00 in
21:23 29.0 °F 6.5 °F 30.51 in NNE 4.7 mph 8.1 mph 38 % 0.00 in
21:29 29.0 °F 7.1 °F 30.51 in North 1.2 mph 3.5 mph 39 % 0.00 in
21:34 28.9 °F 7.0 °F 30.51 in North 4.6 mph 6.9 mph 39 % 0.00 in
21:39 28.8 °F 6.9 °F 30.51 in North 3.9 mph 7.0 mph 39 % 0.00 in
21:44 28.8 °F 6.9 °F 30.51 in NNE 4.5 mph 5.8 mph 39 % 0.00 in
21:49 28.8 °F 6.9 °F 30.51 in North 3.5 mph 7.0 mph 39 % 0.00 in
21:54 28.7 °F 6.8 °F 30.51 in NNW 3.9 mph 5.8 mph 39 % 0.00 in
21:59 28.7 °F 6.8 °F 30.51 in NNW 3.4 mph 5.8 mph 39 % 0.00 in
22:04 28.7 °F 6.8 °F 30.51 in NNE 4.0 mph 6.9 mph 39 % 0.00 in
22:09 28.7 °F 7.4 °F 30.51 in NW 2.3 mph 7.0 mph 40 % 0.00 in
22:14 28.7 °F 7.4 °F 30.51 in NNE 3.2 mph 6.9 mph 40 % 0.00 in
22:19 28.7 °F 7.4 °F 30.51 in NNE 4.0 mph 4.0 mph 40 % 0.00 in
22:24 28.7 °F 6.8 °F 30.51 in NNW 3.0 mph 5.8 mph 39 % 0.00 in
22:29 28.7 °F 5.7 °F 30.51 in North 1.2 mph 4.6 mph 37 % 0.00 in
22:35 28.7 °F 7.4 °F 30.51 in North 0.2 mph 3.5 mph 40 % 0.00 in
22:40 28.7 °F 7.4 °F 30.51 in North 1.8 mph 5.8 mph 40 % 0.00 in
22:45 28.7 °F 6.8 °F 30.50 in North 3.1 mph 5.8 mph 39 % 0.00 in
22:50 28.6 °F 6.7 °F 30.50 in NNW 4.9 mph 8.1 mph 39 % 0.00 in
22:55 28.7 °F 7.4 °F 30.50 in NNW 1.2 mph 3.5 mph 40 % 0.00 in
23:00 28.6 °F 7.3 °F 30.50 in NNE 4.4 mph 8.0 mph 40 % 0.00 in
23:05 28.6 °F 7.3 °F 30.50 in North 0.7 mph 5.8 mph 40 % 0.00 in
23:10 28.5 °F 7.8 °F 30.50 in North 3.1 mph 4.6 mph 41 % 0.00 in
23:15 28.5 °F 7.2 °F 30.51 in North 3.9 mph 8.1 mph 40 % 0.00 in
23:20 28.5 °F 8.3 °F 30.51 in NW 2.4 mph 4.6 mph 42 % 0.00 in
23:25 28.5 °F 8.3 °F 30.50 in North 4.0 mph 6.9 mph 42 % 0.00 in
23:30 28.5 °F 7.8 °F 30.50 in North 4.0 mph 9.2 mph 41 % 0.00 in
23:35 28.5 °F 8.3 °F 30.50 in North 4.2 mph 5.8 mph 42 % 0.00 in
23:40 28.5 °F 7.8 °F 30.51 in North 1.7 mph 4.6 mph 41 % 0.00 in
23:46 28.4 °F 8.2 °F 30.51 in NW 1.2 mph 6.9 mph 42 % 0.00 in
23:51 28.4 °F 7.7 °F 30.50 in NNW 2.5 mph 4.6 mph 41 % 0.00 in
23:52 28.3 °F 8.1 °F 30.51 in NNW 1.1 mph 3.5 mph 42 % 0.00 in
23:57 28.3 °F 8.1 °F 30.51 in NW 1.6 mph 3.5 mph 42 % 0.00 in
Crab Meadow Weather
Compliments of Weather Underground - 3 mb

Script developed by  Jim McMurry - jmcmurry@mwt.net Adapted for the template by  Wim van der Kuil - Leuven-Template.eu

Weather Terms: Winter Storm Watch - Conditions are favorable for hazardous winter weather conditions including heavy snow, blizzard conditions, or significant accumulations of freezing rain or sleet. These watches are issued by the Weather Service Forecast Office in Upton and are usually issued 12 to 36 hours in advance of the event.